WSAP/QPG METAR and TAF weather

Enter ICAO airport designator
Station Type Date Time Source
WSAP METAR 2019/04/18 15:00 UTC NOAA

WSAP 181500Z 06002KT 9999 FEW018 BKN300 30/25 Q1010


Station Type Date Time Source
WSAP Decoded METAR 2019/04/18 15:00 UTC NOAA

Singapore / Paya Lebar, Singapore (WSAP) 01-22N 103-55E 32M
Apr 18, 2019 - 11:00 AM EDT / 2019.04.18 1500 UTC
Wind: from the ENE (060 degrees) at 2 MPH (2 KT):0
Visibility: greater than 7 mile(s):0
Sky conditions: mostly cloudy
Temperature: 86 F (30 C)
Heat index: 96.8 F (36.0 C):1
Dew Point: 77 F (25 C)
Relative Humidity: 74%
Pressure (altimeter): 29.83 in. Hg (1010 hPa)
ob: WSAP 181500Z 06002KT 9999 FEW018 BKN300 30/25 Q1010
cycle: 15

Station Type Date Time Source
WSAP TAF 2019/04/18 12:12 UTC NOAA

TAF WSAP 181100Z 1812/1918 07007KT 9999 FEW015 SCT020
TEMPO 1906/1910 3000 TSRA FEW012CB BKN015

Example: see airport list